Flight Briefing for CPX434

Departure Arrival
El Paso International Airport (KELP)
Click to view FAA NOTAMS
Sacramento International Airport (KSMF)
Click to view FAA NOTAMS
Departure Time Arrival Time
N/A N/A
Aircraft Distance
B757-200SF 852nm
Departure METAR Arrival METAR
KELP 260951Z 01005KT 10SM CLR 15/M01 A3016 RMK AO2 SLP155 T01501011 KSMF 261010Z 20003KT 5SM -RA BR FEW015 SCT020 OVC030 11/11 A3004 RMK AO2 RAB0955 P0000 T01110111
Suggested Route
ATKNN5 FLOGS ITUCO Q2 BOILE J50 EHF NURAY SUUTR2


View recent IFR Routes data
Notes



Charts and Procedures

Charts for KELP
No chart available
Charts for KSMF
No chart available

Windy.com Weather Map